createdAt,value
2019-02-21T00:02:42.481Z,102566.16
2019-02-21T00:07:44.062Z,102577.11
2019-02-21T00:12:45.836Z,102581.94
2019-02-21T00:17:47.933Z,102582.87
2019-02-21T00:22:49.463Z,102580.44
2019-02-21T00:27:51.030Z,102591.27
2019-02-21T00:32:52.620Z,102586.98
2019-02-21T00:37:54.270Z,102589.09
2019-02-21T00:42:55.863Z,102607.98
2019-02-21T00:47:57.748Z,102604.73
2019-02-21T00:52:59.292Z,102606.95
2019-02-21T00:58:00.836Z,102602.52
2019-02-21T01:03:02.478Z,102608.22
2019-02-21T01:08:04.081Z,102607.28
2019-02-21T01:13:05.628Z,102610.26
2019-02-21T01:18:07.536Z,102609.59
2019-02-21T01:23:09.103Z,102613.37
2019-02-21T01:28:11.014Z,102634.20
2019-02-21T01:33:12.828Z,102628.86
2019-02-21T01:38:14.429Z,102636.06
2019-02-21T01:43:16.026Z,102635.91
2019-02-21T01:48:17.626Z,102632.52
2019-02-21T01:53:19.205Z,102634.57
2019-02-21T01:58:20.730Z,102636.63
2019-02-21T02:03:22.715Z,102636.44
2019-02-21T02:08:24.297Z,102636.80
2019-02-21T02:13:25.845Z,102631.45
2019-02-21T02:18:27.411Z,102635.08
2019-02-21T02:23:28.935Z,102635.72
2019-02-21T02:28:30.451Z,102637.78
2019-02-21T02:33:32.024Z,102628.93
2019-02-21T02:38:33.668Z,102625.89
2019-02-21T02:43:35.226Z,102629.38
2019-02-21T02:48:36.850Z,102624.16
2019-02-21T02:53:38.397Z,102616.45
2019-02-21T02:58:39.958Z,102611.06
2019-02-21T03:03:41.521Z,102609.34
2019-02-21T03:08:43.161Z,102605.42
2019-02-21T03:13:45.166Z,102607.20
2019-02-21T03:18:46.688Z,102613.66
2019-02-21T03:23:49.341Z,102605.07
2019-02-21T03:28:50.838Z,102602.98
2019-02-21T03:33:52.386Z,102607.42
2019-02-21T03:38:54.287Z,102608.81
2019-02-21T03:43:55.789Z,102601.93
2019-02-21T03:48:57.690Z,102604.81
2019-02-21T03:53:59.208Z,102600.92
2019-02-21T03:59:00.777Z,102594.03
2019-02-21T04:04:02.330Z,102583.47
2019-02-21T04:09:06.461Z,102576.69
2019-02-21T04:14:08.080Z,102578.53
2019-02-21T04:19:09.608Z,102579.06
2019-02-21T04:24:11.250Z,102575.93
2019-02-21T04:29:12.785Z,102578.41
2019-02-21T04:34:14.391Z,102585.72
2019-02-21T04:39:15.961Z,102580.14
2019-02-21T04:44:17.510Z,102589.50
2019-02-21T04:49:19.069Z,102584.30
2019-02-21T04:54:20.637Z,102593.52
2019-02-21T04:59:22.208Z,102603.01
2019-02-21T05:04:23.739Z,102596.38
2019-02-21T05:09:27.291Z,102608.08
2019-02-21T05:14:29.162Z,102607.95
2019-02-21T05:19:30.791Z,102609.51
2019-02-21T05:24:32.347Z,102610.27
2019-02-21T05:29:34.233Z,102620.51
2019-02-21T05:34:35.857Z,102624.89
2019-02-21T05:39:37.487Z,102608.33
2019-02-21T05:44:41.056Z,102622.57
2019-02-21T05:49:42.729Z,102613.95
2019-02-21T05:54:44.280Z,102600.81
2019-02-21T05:59:45.845Z,102597.32
2019-02-21T06:04:47.759Z,102595.69
2019-02-21T06:09:49.445Z,102602.68
2019-02-21T06:14:54.532Z,102604.45
2019-02-21T06:19:56.387Z,102598.88
2019-02-21T06:24:57.984Z,102586.81
2019-02-21T06:29:59.613Z,102596.78
2019-02-21T06:35:02.881Z,102597.84
2019-02-21T06:40:04.703Z,102591.62
2019-02-21T06:45:06.414Z,102601.28
2019-02-21T06:50:08.050Z,102598.70
2019-02-21T06:55:10.009Z,102593.00
2019-02-21T07:00:11.581Z,102588.73
2019-02-21T07:05:13.210Z,102594.49
2019-02-21T07:10:14.811Z,102601.13
2019-02-21T07:15:16.362Z,102612.75
2019-02-21T07:20:17.954Z,102625.30
2019-02-21T07:25:19.612Z,102640.03
2019-02-21T07:30:23.272Z,102660.13
2019-02-21T07:35:24.643Z,102668.76
2019-02-21T07:40:26.162Z,102675.28
2019-02-21T07:45:31.567Z,102677.13
2019-02-21T07:50:33.110Z,102669.08
2019-02-21T07:55:34.820Z,102667.51
2019-02-21T08:00:36.388Z,102675.86
2019-02-21T08:05:38.329Z,102688.94
2019-02-21T08:10:39.880Z,102692.84
2019-02-21T08:15:41.533Z,102688.02
2019-02-21T08:20:43.448Z,102693.14
2019-02-21T08:25:45.024Z,102694.16
2019-02-21T08:30:46.930Z,102700.30
2019-02-21T08:35:48.503Z,102706.77
2019-02-21T08:40:50.089Z,102712.09
2019-02-21T08:45:51.611Z,102711.78
2019-02-21T08:50:53.218Z,102721.94
2019-02-21T08:55:56.054Z,102730.42
2019-02-21T09:00:57.752Z,102723.77
2019-02-21T09:05:59.292Z,102717.12
2019-02-21T09:11:01.192Z,102740.88
2019-02-21T09:16:04.289Z,102756.25
2019-02-21T09:21:05.853Z,102771.17
2019-02-21T09:26:07.475Z,102775.77
2019-02-21T09:31:09.013Z,102776.94
2019-02-21T09:36:10.577Z,102772.52
2019-02-21T09:41:12.128Z,102774.91
2019-02-21T09:46:13.678Z,102787.40
2019-02-21T09:51:18.190Z,102796.23
2019-02-21T09:56:29.480Z,102799.30
2019-02-21T10:01:22.622Z,102787.16
2019-02-21T10:06:24.151Z,102788.76
2019-02-21T10:11:25.859Z,102784.03
2019-02-21T10:16:27.372Z,102781.64
2019-02-21T10:21:28.956Z,102799.16
2019-02-21T10:26:30.853Z,102807.95
2019-02-21T10:31:32.465Z,102814.34
2019-02-21T10:36:34.027Z,102820.37
2019-02-21T10:41:35.646Z,102824.52
2019-02-21T10:46:37.221Z,102823.83
2019-02-21T10:51:39.047Z,102821.02
2019-02-21T10:56:40.638Z,102823.63
2019-02-21T11:01:42.250Z,102821.62
2019-02-21T11:06:44.278Z,102811.37
2019-02-21T11:11:45.863Z,102805.65
2019-02-21T11:16:47.702Z,102801.03
2019-02-21T11:21:49.284Z,102805.43
2019-02-21T11:26:50.901Z,102797.86
2019-02-21T11:31:52.821Z,102788.67
2019-02-21T11:36:54.929Z,102783.27
2019-02-21T11:41:56.783Z,102776.69
2019-02-21T11:46:58.385Z,102776.98
2019-02-21T11:52:09.882Z,102776.86
2019-02-21T11:57:04.019Z,102772.66
2019-02-21T12:02:05.592Z,102772.97
2019-02-21T12:07:07.166Z,102763.03
2019-02-21T12:12:10.484Z,102766.41
2019-02-21T12:17:12.191Z,102764.20
2019-02-21T12:22:13.749Z,102767.14
2019-02-21T12:27:15.264Z,102760.48
2019-02-21T12:32:16.929Z,102769.41
2019-02-21T12:37:18.495Z,102775.81
2019-02-21T12:42:20.074Z,102778.16
2019-02-21T12:47:21.673Z,102778.70
2019-02-21T12:52:23.280Z,102785.08
2019-02-21T12:57:24.791Z,102781.00
2019-02-21T13:02:26.355Z,102787.55
2019-02-21T13:07:27.858Z,102781.52
2019-02-21T13:12:29.435Z,102777.46
2019-02-21T13:17:31.098Z,102776.84
2019-02-21T13:22:32.653Z,102786.52
2019-02-21T13:27:35.804Z,102782.37
2019-02-21T13:32:37.363Z,102776.14
2019-02-21T13:37:38.917Z,102773.44
2019-02-21T13:42:40.494Z,102777.42
2019-02-21T13:47:42.084Z,102784.75
2019-02-21T13:52:43.957Z,102788.81
2019-02-21T13:57:46.017Z,102796.17
2019-02-21T14:02:47.567Z,102790.78
2019-02-21T14:07:49.091Z,102778.38
2019-02-21T14:12:50.713Z,102780.19
2019-02-21T14:17:52.304Z,102780.97
2019-02-21T14:22:53.843Z,102787.42
2019-02-21T14:27:55.425Z,102784.93
2019-02-21T14:32:57.037Z,102791.25
2019-02-21T14:37:58.665Z,102793.02
2019-02-21T14:43:00.209Z,102791.46
2019-02-21T14:48:01.769Z,102798.64
2019-02-21T14:53:03.344Z,102811.67
2019-02-21T14:58:05.929Z,102813.19
2019-02-21T15:03:07.893Z,102824.59
2019-02-21T15:08:09.465Z,102832.22
2019-02-21T15:13:11.011Z,102843.17
2019-02-21T15:18:13.131Z,102850.09
2019-02-21T15:23:14.815Z,102856.42
2019-02-21T15:28:16.432Z,102862.12
2019-02-21T15:33:18.405Z,102857.30
2019-02-21T15:38:20.383Z,102874.14
2019-02-21T15:43:22.038Z,102877.79
2019-02-21T15:48:23.592Z,102875.88
2019-02-21T15:53:25.200Z,102876.47
2019-02-21T15:58:27.320Z,102883.83
2019-02-21T16:03:28.877Z,102892.29
2019-02-21T16:08:31.141Z,102890.39
2019-02-21T16:13:36.123Z,102898.63
2019-02-21T16:18:38.192Z,102901.22
2019-02-21T16:23:39.768Z,102905.32
2019-02-21T16:28:41.735Z,102910.44
2019-02-21T16:33:43.282Z,102906.89
2019-02-21T16:38:44.905Z,102914.94
2019-02-21T16:43:46.721Z,102926.39
2019-02-21T16:48:49.008Z,102925.92
2019-02-21T16:53:50.568Z,102927.00
2019-02-21T16:58:52.356Z,102932.97
2019-02-21T17:03:55.307Z,102939.44
2019-02-21T17:08:56.900Z,102946.47
2019-02-21T17:13:58.940Z,102955.06
2019-02-21T17:19:04.854Z,102957.89
2019-02-21T17:24:07.418Z,102962.67
2019-02-21T17:29:09.276Z,102972.55
2019-02-21T17:34:11.202Z,102988.35
2019-02-21T17:39:13.686Z,102989.92
2019-02-21T17:44:15.620Z,103005.17
2019-02-21T17:49:17.804Z,102999.87
2019-02-21T17:54:20.445Z,103009.16
2019-02-21T17:59:22.181Z,102988.17
2019-02-21T18:04:23.908Z,103021.59
2019-02-21T18:09:25.633Z,103023.78
2019-02-21T18:14:27.203Z,103023.94
2019-02-21T18:19:28.915Z,103028.27
2019-02-21T18:24:30.560Z,103036.53
2019-02-21T18:29:32.245Z,103049.70
2019-02-21T18:34:33.875Z,103062.34
2019-02-21T18:39:36.098Z,103050.93
2019-02-21T18:44:37.787Z,103053.30
2019-02-21T18:49:39.985Z,103051.22
2019-02-21T18:54:42.072Z,103053.84
2019-02-21T18:59:43.730Z,103061.71
2019-02-21T19:04:45.596Z,103063.60
2019-02-21T19:09:47.691Z,103062.55
2019-02-21T19:14:49.280Z,103068.31
2019-02-21T19:19:50.936Z,103070.89
2019-02-21T19:24:52.501Z,103060.25
2019-02-21T19:29:54.100Z,103071.77
2019-02-21T19:34:55.823Z,103092.31
2019-02-21T19:39:57.518Z,103091.23
2019-02-21T19:44:59.282Z,103089.64
2019-02-21T19:50:01.225Z,103088.33
2019-02-21T19:55:02.988Z,103104.59
2019-02-21T20:00:06.401Z,103109.95
2019-02-21T20:05:07.944Z,103111.69
2019-02-21T20:10:09.700Z,103116.70
2019-02-21T20:15:11.426Z,103116.70
2019-02-21T20:20:14.101Z,103114.75
2019-02-21T20:25:15.680Z,103121.46
2019-02-21T20:30:17.249Z,103123.80
2019-02-21T20:35:19.206Z,103127.34
2019-02-21T20:40:20.837Z,103123.80
2019-02-21T20:45:24.726Z,103131.91
2019-02-21T20:50:26.426Z,103134.82
2019-02-21T20:55:28.790Z,103143.48
2019-02-21T21:00:30.430Z,103155.05
2019-02-21T21:05:32.033Z,103152.07
2019-02-21T21:10:33.584Z,103159.55
2019-02-21T21:15:35.738Z,103166.78
2019-02-21T21:20:37.292Z,103173.48
2019-02-21T21:25:38.841Z,103173.78
2019-02-21T21:30:40.556Z,103175.09
2019-02-21T21:35:42.545Z,103185.63
2019-02-21T21:40:44.132Z,103187.22
2019-02-21T21:45:45.816Z,103192.36
2019-02-21T21:50:47.780Z,103197.42
2019-02-21T21:55:49.465Z,103195.33
2019-02-21T22:00:51.173Z,103203.31
2019-02-21T22:05:52.762Z,103209.77
2019-02-21T22:10:54.358Z,103214.36
2019-02-21T22:15:56.086Z,103215.68
2019-02-21T22:20:57.639Z,103223.94
2019-02-21T22:25:59.643Z,103224.89
2019-02-21T22:31:01.201Z,103236.52
2019-02-21T22:36:02.767Z,103236.94
2019-02-21T22:41:04.383Z,103235.48
2019-02-21T22:46:05.935Z,103232.33
2019-02-21T22:51:07.813Z,103241.80
2019-02-21T22:56:09.386Z,103255.47
2019-02-21T23:01:35.179Z,103260.82
2019-02-21T23:06:52.790Z,103266.48
2019-02-21T23:11:54.319Z,103273.31
2019-02-21T23:16:55.952Z,103279.59
2019-02-21T23:21:57.691Z,103302.66
2019-02-21T23:26:59.296Z,103291.92
2019-02-21T23:32:03.168Z,103297.17
2019-02-21T23:37:04.702Z,103302.27
2019-02-21T23:42:06.427Z,103314.22
2019-02-21T23:47:08.107Z,103322.58
2019-02-21T23:52:09.786Z,103322.75
2019-02-21T23:57:11.485Z,103316.69
